createdAt,value
2023-03-22T00:01:23.653Z,15.82
2023-03-22T00:03:52.667Z,16.75
2023-03-22T00:06:20.271Z,20.33
2023-03-22T00:08:51.173Z,22.77
2023-03-22T00:11:21.248Z,19.20
2023-03-22T00:13:48.473Z,18.90
2023-03-22T00:16:15.671Z,17.58
2023-03-22T00:18:42.994Z,17.67
2023-03-22T00:21:15.887Z,18.63
2023-03-22T00:23:43.308Z,17.83
2023-03-22T00:26:12.272Z,21.05
2023-03-22T00:28:39.929Z,18.33
2023-03-22T00:31:07.673Z,18.25
2023-03-22T00:33:35.312Z,18.30
2023-03-22T00:36:08.334Z,20.20
2023-03-22T00:38:44.080Z,16.45
2023-03-22T00:41:20.928Z,18.02
2023-03-22T00:43:49.524Z,18.55
2023-03-22T00:46:19.793Z,15.15
2023-03-22T00:48:47.826Z,14.60
2023-03-22T00:51:15.659Z,16.88
2023-03-22T00:53:43.973Z,20.20
2023-03-22T00:56:15.413Z,18.67
2023-03-22T00:58:46.290Z,19.80
2023-03-22T01:01:14.584Z,15.00
2023-03-22T01:03:44.095Z,16.02
2023-03-22T01:06:14.905Z,18.10
2023-03-22T01:08:42.056Z,15.70
2023-03-22T01:11:09.661Z,18.17
2023-03-22T01:13:38.307Z,15.35
2023-03-22T01:16:07.154Z,14.60
2023-03-22T01:18:35.236Z,19.33
2023-03-22T01:21:03.182Z,14.50
2023-03-22T01:23:30.644Z,14.25
2023-03-22T01:25:58.075Z,14.68
2023-03-22T01:28:27.072Z,15.25
2023-03-22T01:30:55.608Z,16.45
2023-03-22T01:33:22.882Z,16.73
2023-03-22T01:35:51.653Z,19.95
2023-03-22T01:38:19.667Z,13.95
2023-03-22T01:41:00.889Z,16.98
2023-03-22T01:43:30.983Z,15.55
2023-03-22T01:45:58.974Z,16.08
2023-03-22T01:48:46.036Z,16.25
2023-03-22T01:51:21.706Z,14.88
2023-03-22T01:54:37.392Z,13.50
2023-03-22T01:57:18.567Z,14.77
2023-03-22T01:59:47.584Z,15.52
2023-03-22T02:02:40.947Z,14.52
2023-03-22T02:05:26.028Z,18.38
2023-03-22T02:07:56.644Z,18.30
2023-03-22T02:10:27.391Z,14.02
2023-03-22T02:13:39.566Z,16.00
2023-03-22T02:17:06.547Z,17.52
2023-03-22T02:20:47.398Z,17.77
2023-03-22T02:24:00.693Z,14.80
2023-03-22T02:27:04.896Z,15.25
2023-03-22T02:30:03.332Z,11.55
2023-03-22T02:32:53.633Z,13.90
2023-03-22T02:36:16.767Z,15.77
2023-03-22T02:39:05.362Z,13.93
2023-03-22T02:41:56.060Z,13.48
2023-03-22T02:44:39.347Z,14.90
2023-03-22T02:47:23.115Z,15.02
2023-03-22T02:50:16.856Z,15.80
2023-03-22T02:52:59.263Z,15.73
2023-03-22T02:55:47.063Z,16.65
2023-03-22T02:58:22.283Z,13.63
2023-03-22T03:00:56.889Z,15.25
2023-03-22T03:03:27.183Z,18.38
2023-03-22T03:05:59.914Z,17.40
2023-03-22T03:08:28.529Z,20.77
2023-03-22T03:10:56.353Z,16.13
2023-03-22T03:13:23.336Z,16.38
2023-03-22T03:15:57.269Z,18.30
2023-03-22T03:18:45.957Z,16.73
2023-03-22T03:21:17.940Z,15.52
2023-03-22T03:24:00.772Z,13.82
2023-03-22T03:26:33.702Z,15.23
2023-03-22T03:29:15.273Z,16.08
2023-03-22T03:32:04.634Z,15.95
2023-03-22T03:34:52.778Z,17.42
2023-03-22T03:37:26.283Z,16.92
2023-03-22T03:40:01.581Z,15.85
2023-03-22T03:42:30.565Z,16.40
2023-03-22T03:44:58.404Z,17.13
2023-03-22T03:47:28.886Z,18.02
2023-03-22T03:49:55.918Z,15.23
2023-03-22T03:52:26.238Z,15.15
2023-03-22T03:54:53.498Z,15.38
2023-03-22T03:57:27.060Z,17.13
2023-03-22T03:59:54.393Z,18.25
2023-03-22T04:02:42.203Z,15.85
2023-03-22T04:05:18.546Z,14.35
2023-03-22T04:07:45.880Z,15.65
2023-03-22T04:10:13.347Z,16.80
2023-03-22T04:12:40.881Z,17.65
2023-03-22T04:15:18.253Z,16.08
2023-03-22T04:17:51.446Z,14.75
2023-03-22T04:20:19.414Z,14.93
2023-03-22T04:22:48.907Z,14.20
2023-03-22T04:25:18.113Z,19.45
2023-03-22T04:27:57.644Z,15.88
2023-03-22T04:30:27.284Z,18.08
2023-03-22T04:33:15.253Z,18.27
2023-03-22T04:36:02.933Z,18.70
2023-03-22T04:38:37.360Z,18.35
2023-03-22T04:41:05.468Z,16.25
2023-03-22T04:43:47.075Z,20.85
2023-03-22T04:46:16.698Z,15.98
2023-03-22T04:48:52.684Z,16.70
2023-03-22T04:51:19.906Z,15.98
2023-03-22T04:54:14.147Z,16.60
2023-03-22T04:56:42.529Z,16.20
2023-03-22T04:59:10.815Z,18.08
2023-03-22T05:01:38.137Z,16.35
2023-03-22T05:04:11.833Z,16.95
2023-03-22T05:06:41.967Z,16.40
2023-03-22T05:09:16.230Z,19.90
2023-03-22T05:14:58.361Z,18.75
2023-03-22T05:17:30.809Z,16.75
2023-03-22T05:20:10.389Z,19.98
2023-03-22T05:22:40.968Z,18.13
2023-03-22T05:25:11.789Z,20.40
2023-03-22T05:27:42.964Z,23.10
2023-03-22T05:33:05.187Z,19.55
2023-03-22T05:35:40.502Z,19.17
2023-03-22T05:38:10.645Z,17.33
2023-03-22T05:40:42.257Z,19.55
2023-03-22T05:43:09.736Z,21.33
2023-03-22T05:45:39.540Z,22.48
2023-03-22T05:48:26.908Z,21.38
2023-03-22T05:50:54.087Z,19.27
2023-03-22T05:53:21.492Z,20.45
2023-03-22T05:56:00.831Z,18.10
2023-03-22T05:58:32.182Z,18.63
2023-03-22T06:01:13.512Z,17.95
2023-03-22T06:03:46.486Z,22.65
2023-03-22T06:06:24.710Z,19.50
2023-03-22T06:09:10.619Z,17.23
2023-03-22T06:11:43.580Z,21.98
2023-03-22T06:14:11.126Z,19.27
2023-03-22T06:16:54.280Z,22.02
2023-03-22T06:19:21.830Z,20.25
2023-03-22T06:21:49.626Z,20.20
2023-03-22T06:24:18.120Z,16.85
2023-03-22T06:26:47.058Z,20.58
2023-03-22T06:29:14.373Z,19.52
2023-03-22T06:31:41.385Z,20.48
2023-03-22T06:34:09.187Z,25.77
2023-03-22T06:36:39.371Z,19.58
2023-03-22T06:39:11.411Z,20.15
2023-03-22T06:41:41.234Z,19.58
2023-03-22T06:44:08.961Z,17.13
2023-03-22T06:46:53.529Z,21.48
2023-03-22T06:49:58.904Z,19.25
2023-03-22T06:52:38.581Z,20.73
2023-03-22T06:55:08.874Z,20.08
2023-03-22T06:57:36.133Z,17.15
2023-03-22T07:00:05.381Z,18.88
2023-03-22T07:02:32.494Z,22.33
2023-03-22T07:05:18.099Z,19.02
2023-03-22T07:07:46.004Z,18.45
2023-03-22T07:10:13.308Z,19.02
2023-03-22T07:12:40.579Z,19.50
2023-03-22T07:15:12.306Z,19.00
2023-03-22T07:17:49.011Z,18.13
2023-03-22T07:20:16.225Z,15.30
2023-03-22T07:22:43.730Z,22.90
2023-03-22T07:25:11.143Z,17.27
2023-03-22T07:27:39.674Z,18.55
2023-03-22T07:30:09.735Z,19.42
2023-03-22T07:32:41.539Z,16.08
2023-03-22T07:35:12.863Z,15.40
2023-03-22T07:37:40.593Z,16.27
2023-03-22T07:40:16.760Z,15.02
2023-03-22T07:42:44.050Z,15.43
2023-03-22T07:45:23.720Z,20.63
2023-03-22T07:48:11.334Z,14.48
2023-03-22T07:50:56.464Z,15.50
2023-03-22T07:53:25.632Z,15.95
2023-03-22T07:55:52.884Z,14.32
2023-03-22T07:58:19.861Z,14.18
2023-03-22T08:00:49.957Z,14.20
2023-03-22T08:03:48.669Z,14.77
2023-03-22T08:06:36.921Z,14.35
2023-03-22T08:09:08.544Z,12.73
2023-03-22T08:11:36.776Z,17.42
2023-03-22T08:14:04.168Z,14.88
2023-03-22T08:16:34.297Z,16.42
2023-03-22T08:19:03.520Z,15.27
2023-03-22T08:21:35.086Z,11.10
2023-03-22T08:24:04.827Z,13.45
2023-03-22T08:29:25.249Z,17.88
2023-03-22T08:31:52.640Z,11.98
2023-03-22T08:34:20.847Z,11.20
2023-03-22T08:36:47.903Z,11.32
2023-03-22T08:39:14.982Z,14.65
2023-03-22T08:41:52.865Z,11.82
2023-03-22T08:44:20.410Z,10.85
2023-03-22T08:46:47.362Z,11.10
2023-03-22T08:49:15.049Z,10.32
2023-03-22T08:51:48.142Z,9.68
2023-03-22T08:54:18.993Z,11.10
2023-03-22T08:57:04.922Z,12.55
2023-03-22T08:59:52.151Z,10.10
2023-03-22T09:02:45.906Z,14.90
2023-03-22T09:05:14.210Z,10.18
2023-03-22T09:07:44.297Z,8.85
2023-03-22T09:10:24.451Z,9.90
2023-03-22T09:12:52.310Z,12.55
2023-03-22T09:15:19.609Z,11.30
2023-03-22T09:17:58.229Z,11.13
2023-03-22T09:20:25.446Z,9.15
2023-03-22T09:22:52.737Z,12.80
2023-03-22T09:25:21.703Z,10.30
2023-03-22T09:27:50.458Z,11.48
2023-03-22T09:30:17.599Z,12.60
2023-03-22T09:32:44.633Z,11.00
2023-03-22T09:35:14.878Z,10.93
2023-03-22T09:37:58.800Z,9.65
2023-03-22T09:40:32.974Z,11.68
2023-03-22T09:43:06.418Z,12.27
2023-03-22T09:45:47.146Z,10.98
2023-03-22T09:48:20.137Z,8.00
2023-03-22T09:50:54.284Z,8.55
2023-03-22T09:53:24.986Z,9.52
2023-03-22T09:56:07.232Z,12.75
2023-03-22T09:58:51.084Z,9.88
2023-03-22T10:01:49.018Z,10.43
2023-03-22T10:04:41.499Z,10.23
2023-03-22T10:07:27.277Z,13.38
2023-03-22T10:10:10.370Z,9.07
2023-03-22T10:12:40.512Z,11.45
2023-03-22T10:15:32.400Z,10.45
2023-03-22T10:18:02.850Z,10.68
2023-03-22T10:20:54.468Z,10.02
2023-03-22T10:23:43.957Z,8.55
2023-03-22T10:26:31.522Z,8.75
2023-03-22T10:29:09.921Z,8.50
2023-03-22T10:31:39.594Z,8.82
2023-03-22T10:34:22.357Z,7.28
2023-03-22T10:36:52.676Z,6.88
2023-03-22T10:39:59.448Z,11.68
2023-03-22T10:42:30.472Z,10.55
2023-03-22T10:45:03.637Z,9.00
2023-03-22T10:47:43.270Z,8.18
2023-03-22T10:50:18.973Z,8.30
2023-03-22T10:53:07.417Z,7.88
2023-03-22T10:55:41.898Z,11.85
2023-03-22T10:58:18.789Z,6.60
2023-03-22T11:00:52.899Z,11.10
2023-03-22T11:03:46.955Z,7.78
2023-03-22T11:06:29.743Z,9.15
2023-03-22T11:09:16.017Z,9.93
2023-03-22T11:12:02.847Z,6.82
2023-03-22T11:17:10.228Z,8.77
2023-03-22T11:19:51.873Z,10.70
2023-03-22T11:22:36.151Z,8.07
2023-03-22T11:25:16.139Z,7.20
2023-03-22T11:27:58.327Z,6.32
2023-03-22T11:30:29.464Z,6.80
2023-03-22T11:33:21.630Z,7.15
2023-03-22T11:35:56.794Z,7.03
2023-03-22T11:38:38.302Z,5.53
2023-03-22T11:41:12.380Z,9.60
2023-03-22T11:43:48.619Z,6.30
2023-03-22T11:46:19.317Z,6.35
2023-03-22T11:48:50.649Z,6.90
2023-03-22T11:51:29.912Z,5.50
2023-03-22T11:54:08.669Z,8.93
2023-03-22T11:56:43.006Z,8.30
2023-03-22T11:59:25.621Z,6.97
2023-03-22T12:02:42.106Z,8.18
2023-03-22T12:05:25.603Z,5.78
2023-03-22T12:08:00.724Z,6.55
2023-03-22T12:10:41.822Z,6.75
2023-03-22T12:13:41.783Z,5.35
2023-03-22T12:16:15.116Z,7.55
2023-03-22T12:18:57.580Z,4.65
2023-03-22T12:21:25.684Z,4.88
2023-03-22T12:23:56.612Z,5.18
2023-03-22T12:26:29.309Z,6.07
2023-03-22T12:29:05.685Z,6.10
2023-03-22T12:31:37.563Z,5.85
2023-03-22T12:34:11.748Z,7.15
2023-03-22T12:36:47.804Z,6.13
2023-03-22T12:39:38.436Z,5.78
2023-03-22T12:42:30.796Z,10.40
2023-03-22T12:45:08.603Z,4.88
2023-03-22T12:47:43.995Z,5.53
2023-03-22T12:50:22.084Z,6.38
2023-03-22T12:52:56.550Z,5.00
2023-03-22T12:55:32.836Z,4.95
2023-03-22T12:58:00.717Z,5.13
2023-03-22T13:00:41.823Z,5.72
2023-03-22T13:03:27.268Z,4.20
2023-03-22T13:06:27.969Z,6.47
2023-03-22T13:09:15.688Z,8.27
2023-03-22T13:11:53.200Z,6.78
2023-03-22T13:14:52.263Z,5.30
2023-03-22T13:17:25.999Z,5.72
2023-03-22T13:20:23.779Z,6.97
2023-03-22T13:22:51.414Z,4.95
2023-03-22T13:25:22.791Z,4.63
2023-03-22T13:28:03.515Z,1.98
2023-03-22T13:30:36.222Z,5.18
2023-03-22T13:33:09.888Z,4.85
2023-03-22T13:35:52.804Z,3.53
2023-03-22T13:38:30.303Z,3.33
2023-03-22T13:41:22.053Z,4.57
2023-03-22T13:43:52.252Z,4.28
2023-03-22T13:46:22.136Z,4.35
2023-03-22T13:48:50.657Z,5.13
2023-03-22T13:51:25.453Z,8.10
2023-03-22T13:54:21.452Z,4.35
2023-03-22T13:56:56.425Z,2.22
2023-03-22T13:59:32.381Z,5.72
2023-03-22T14:02:12.278Z,3.95
2023-03-22T14:04:50.885Z,5.40
2023-03-22T14:07:41.743Z,2.85
2023-03-22T14:10:25.641Z,3.22
2023-03-22T14:13:30.900Z,1.95
2023-03-22T14:16:08.302Z,5.47
2023-03-22T14:18:41.152Z,3.00
2023-03-22T14:21:18.530Z,7.00
